sensor_id;sensor_type;location;lat;lon;timestamp;P1;durP1;ratioP1;P2;durP2;ratioP2
8050;SDS011;4068;42.158;24.732;2023-07-08T00:01:08;9.50;;;7.63;;
8050;SDS011;4068;42.158;24.732;2023-07-08T00:03:39;9.68;;;7.43;;
8050;SDS011;4068;42.158;24.732;2023-07-08T00:06:07;12.70;;;7.60;;
8050;SDS011;4068;42.158;24.732;2023-07-08T00:08:36;11.15;;;7.38;;
8050;SDS011;4068;42.158;24.732;2023-07-08T00:11:04;9.85;;;7.18;;
8050;SDS011;4068;42.158;24.732;2023-07-08T00:13:34;8.68;;;7.25;;
8050;SDS011;4068;42.158;24.732;2023-07-08T00:16:00;11.07;;;7.57;;
8050;SDS011;4068;42.158;24.732;2023-07-08T00:18:25;9.50;;;7.32;;
8050;SDS011;4068;42.158;24.732;2023-07-08T00:20:51;9.50;;;8.25;;
8050;SDS011;4068;42.158;24.732;2023-07-08T00:23:16;10.57;;;7.50;;
8050;SDS011;4068;42.158;24.732;2023-07-08T00:25:46;10.57;;;7.20;;
8050;SDS011;4068;42.158;24.732;2023-07-08T00:28:13;10.88;;;7.30;;
8050;SDS011;4068;42.158;24.732;2023-07-08T00:30:43;8.68;;;7.50;;
8050;SDS011;4068;42.158;24.732;2023-07-08T00:33:09;9.60;;;7.55;;
8050;SDS011;4068;42.158;24.732;2023-07-08T00:38:02;8.43;;;7.10;;
8050;SDS011;4068;42.158;24.732;2023-07-08T00:40:47;9.05;;;7.35;;
8050;SDS011;4068;42.158;24.732;2023-07-08T00:43:38;11.23;;;7.30;;
8050;SDS011;4068;42.158;24.732;2023-07-08T00:54:51;9.95;;;7.22;;
8050;SDS011;4068;42.158;24.732;2023-07-08T00:57:18;9.35;;;6.70;;
8050;SDS011;4068;42.158;24.732;2023-07-08T00:59:53;12.35;;;7.07;;
8050;SDS011;4068;42.158;24.732;2023-07-08T01:02:23;9.55;;;7.38;;
8050;SDS011;4068;42.158;24.732;2023-07-08T01:07:24;10.48;;;7.10;;
8050;SDS011;4068;42.158;24.732;2023-07-08T01:09:57;9.10;;;6.60;;
8050;SDS011;4068;42.158;24.732;2023-07-08T01:12:32;10.18;;;6.63;;
8050;SDS011;4068;42.158;24.732;2023-07-08T01:15:05;8.07;;;6.07;;
8050;SDS011;4068;42.158;24.732;2023-07-08T01:17:32;9.05;;;6.63;;
8050;SDS011;4068;42.158;24.732;2023-07-08T01:20:03;8.05;;;6.95;;
8050;SDS011;4068;42.158;24.732;2023-07-08T01:22:37;7.10;;;6.20;;
8050;SDS011;4068;42.158;24.732;2023-07-08T01:25:04;8.30;;;6.45;;
8050;SDS011;4068;42.158;24.732;2023-07-08T01:27:32;10.00;;;6.47;;
8050;SDS011;4068;42.158;24.732;2023-07-08T01:30:00;9.60;;;6.38;;
8050;SDS011;4068;42.158;24.732;2023-07-08T01:32:28;9.23;;;7.00;;
8050;SDS011;4068;42.158;24.732;2023-07-08T01:34:57;10.07;;;6.63;;
8050;SDS011;4068;42.158;24.732;2023-07-08T01:37:39;10.88;;;6.80;;
8050;SDS011;4068;42.158;24.732;2023-07-08T01:42:54;9.82;;;7.53;;
8050;SDS011;4068;42.158;24.732;2023-07-08T01:45:20;11.77;;;7.35;;
8050;SDS011;4068;42.158;24.732;2023-07-08T01:47:59;12.35;;;7.43;;
8050;SDS011;4068;42.158;24.732;2023-07-08T01:50:28;11.95;;;7.22;;
8050;SDS011;4068;42.158;24.732;2023-07-08T01:52:58;10.65;;;8.07;;
8050;SDS011;4068;42.158;24.732;2023-07-08T01:55:25;9.48;;;7.75;;
8050;SDS011;4068;42.158;24.732;2023-07-08T01:57:54;12.38;;;7.28;;
8050;SDS011;4068;42.158;24.732;2023-07-08T02:00:20;13.10;;;7.35;;
8050;SDS011;4068;42.158;24.732;2023-07-08T02:02:46;9.32;;;7.90;;
8050;SDS011;4068;42.158;24.732;2023-07-08T02:05:13;10.27;;;8.35;;
8050;SDS011;4068;42.158;24.732;2023-07-08T02:07:38;11.50;;;7.75;;
8050;SDS011;4068;42.158;24.732;2023-07-08T02:10:04;10.50;;;8.00;;
8050;SDS011;4068;42.158;24.732;2023-07-08T02:12:30;11.75;;;8.40;;
8050;SDS011;4068;42.158;24.732;2023-07-08T02:14:56;11.23;;;8.30;;
8050;SDS011;4068;42.158;24.732;2023-07-08T02:17:21;11.52;;;7.57;;
8050;SDS011;4068;42.158;24.732;2023-07-08T02:19:46;9.88;;;8.27;;
8050;SDS011;4068;42.158;24.732;2023-07-08T02:22:12;10.88;;;8.63;;
8050;SDS011;4068;42.158;24.732;2023-07-08T02:24:37;15.25;;;8.63;;
8050;SDS011;4068;42.158;24.732;2023-07-08T02:27:03;13.35;;;8.80;;
8050;SDS011;4068;42.158;24.732;2023-07-08T02:29:29;10.07;;;8.60;;
8050;SDS011;4068;42.158;24.732;2023-07-08T02:31:57;13.88;;;9.20;;
8050;SDS011;4068;42.158;24.732;2023-07-08T02:34:22;14.40;;;9.68;;
8050;SDS011;4068;42.158;24.732;2023-07-08T02:36:48;13.35;;;9.05;;
8050;SDS011;4068;42.158;24.732;2023-07-08T02:39:13;15.98;;;10.45;;
8050;SDS011;4068;42.158;24.732;2023-07-08T02:41:39;12.38;;;10.20;;
8050;SDS011;4068;42.158;24.732;2023-07-08T02:44:04;16.77;;;9.57;;
8050;SDS011;4068;42.158;24.732;2023-07-08T02:46:30;17.40;;;10.40;;
8050;SDS011;4068;42.158;24.732;2023-07-08T02:48:55;14.38;;;10.02;;
8050;SDS011;4068;42.158;24.732;2023-07-08T02:51:21;15.60;;;11.18;;
8050;SDS011;4068;42.158;24.732;2023-07-08T02:53:47;17.20;;;10.77;;
8050;SDS011;4068;42.158;24.732;2023-07-08T02:56:14;19.55;;;10.93;;
8050;SDS011;4068;42.158;24.732;2023-07-08T02:58:40;17.92;;;10.65;;
8050;SDS011;4068;42.158;24.732;2023-07-08T03:01:05;14.63;;;11.13;;
8050;SDS011;4068;42.158;24.732;2023-07-08T03:03:31;15.23;;;11.23;;
8050;SDS011;4068;42.158;24.732;2023-07-08T03:05:58;13.18;;;11.35;;
8050;SDS011;4068;42.158;24.732;2023-07-08T03:08:28;19.45;;;11.98;;
8050;SDS011;4068;42.158;24.732;2023-07-08T03:10:58;17.15;;;11.70;;
8050;SDS011;4068;42.158;24.732;2023-07-08T03:13:25;14.38;;;11.63;;
8050;SDS011;4068;42.158;24.732;2023-07-08T03:15:52;17.02;;;11.52;;
8050;SDS011;4068;42.158;24.732;2023-07-08T03:18:19;15.35;;;11.70;;
8050;SDS011;4068;42.158;24.732;2023-07-08T03:20:47;17.05;;;11.80;;
8050;SDS011;4068;42.158;24.732;2023-07-08T03:23:13;17.30;;;12.25;;
8050;SDS011;4068;42.158;24.732;2023-07-08T03:25:39;17.10;;;12.10;;
8050;SDS011;4068;42.158;24.732;2023-07-08T03:28:05;16.88;;;12.02;;
8050;SDS011;4068;42.158;24.732;2023-07-08T03:30:31;15.82;;;12.30;;
8050;SDS011;4068;42.158;24.732;2023-07-08T03:32:58;16.17;;;12.73;;
8050;SDS011;4068;42.158;24.732;2023-07-08T03:35:24;15.35;;;12.23;;
8050;SDS011;4068;42.158;24.732;2023-07-08T03:37:51;15.98;;;12.50;;
8050;SDS011;4068;42.158;24.732;2023-07-08T03:40:17;16.35;;;12.80;;
8050;SDS011;4068;42.158;24.732;2023-07-08T03:42:42;14.95;;;12.55;;
8050;SDS011;4068;42.158;24.732;2023-07-08T03:45:08;16.48;;;13.60;;
8050;SDS011;4068;42.158;24.732;2023-07-08T03:47:34;17.42;;;11.90;;
8050;SDS011;4068;42.158;24.732;2023-07-08T03:49:59;18.83;;;12.23;;
8050;SDS011;4068;42.158;24.732;2023-07-08T03:52:25;19.42;;;12.50;;
8050;SDS011;4068;42.158;24.732;2023-07-08T03:54:50;16.83;;;12.88;;
8050;SDS011;4068;42.158;24.732;2023-07-08T03:57:16;16.05;;;12.20;;
8050;SDS011;4068;42.158;24.732;2023-07-08T03:59:41;15.25;;;12.10;;
8050;SDS011;4068;42.158;24.732;2023-07-08T04:02:08;16.15;;;11.68;;
8050;SDS011;4068;42.158;24.732;2023-07-08T04:04:35;15.07;;;12.02;;
8050;SDS011;4068;42.158;24.732;2023-07-08T04:07:03;13.70;;;11.30;;
8050;SDS011;4068;42.158;24.732;2023-07-08T04:09:29;17.65;;;11.45;;
8050;SDS011;4068;42.158;24.732;2023-07-08T04:11:54;13.25;;;11.25;;
8050;SDS011;4068;42.158;24.732;2023-07-08T04:14:20;13.32;;;11.73;;
8050;SDS011;4068;42.158;24.732;2023-07-08T04:16:55;15.77;;;11.73;;
8050;SDS011;4068;42.158;24.732;2023-07-08T04:19:23;15.00;;;11.38;;
8050;SDS011;4068;42.158;24.732;2023-07-08T04:21:50;15.73;;;11.70;;
8050;SDS011;4068;42.158;24.732;2023-07-08T04:24:16;14.05;;;10.55;;
8050;SDS011;4068;42.158;24.732;2023-07-08T04:26:43;16.20;;;11.07;;
8050;SDS011;4068;42.158;24.732;2023-07-08T04:29:18;14.13;;;10.82;;
8050;SDS011;4068;42.158;24.732;2023-07-08T04:31:45;15.88;;;11.88;;
8050;SDS011;4068;42.158;24.732;2023-07-08T04:34:11;13.05;;;10.75;;
8050;SDS011;4068;42.158;24.732;2023-07-08T04:36:37;13.23;;;10.38;;
8050;SDS011;4068;42.158;24.732;2023-07-08T04:39:03;14.65;;;10.95;;
8050;SDS011;4068;42.158;24.732;2023-07-08T04:41:30;13.77;;;11.18;;
8050;SDS011;4068;42.158;24.732;2023-07-08T04:43:56;13.35;;;11.48;;
8050;SDS011;4068;42.158;24.732;2023-07-08T04:46:38;12.45;;;10.25;;
8050;SDS011;4068;42.158;24.732;2023-07-08T04:49:07;12.90;;;10.13;;
8050;SDS011;4068;42.158;24.732;2023-07-08T04:51:40;14.02;;;10.55;;
8050;SDS011;4068;42.158;24.732;2023-07-08T04:54:06;11.90;;;10.60;;
8050;SDS011;4068;42.158;24.732;2023-07-08T04:56:36;11.52;;;10.32;;
8050;SDS011;4068;42.158;24.732;2023-07-08T04:59:10;13.57;;;10.73;;
8050;SDS011;4068;42.158;24.732;2023-07-08T05:01:38;12.30;;;9.60;;
8050;SDS011;4068;42.158;24.732;2023-07-08T05:04:04;13.15;;;10.40;;
8050;SDS011;4068;42.158;24.732;2023-07-08T05:06:31;15.85;;;11.00;;
8050;SDS011;4068;42.158;24.732;2023-07-08T05:08:58;19.55;;;10.05;;
8050;SDS011;4068;42.158;24.732;2023-07-08T05:11:24;10.43;;;9.35;;
8050;SDS011;4068;42.158;24.732;2023-07-08T05:13:50;12.32;;;10.60;;
8050;SDS011;4068;42.158;24.732;2023-07-08T05:16:15;12.05;;;10.00;;
8050;SDS011;4068;42.158;24.732;2023-07-08T05:18:41;11.82;;;10.43;;
8050;SDS011;4068;42.158;24.732;2023-07-08T05:21:06;12.60;;;10.40;;
8050;SDS011;4068;42.158;24.732;2023-07-08T05:23:33;11.60;;;9.65;;
8050;SDS011;4068;42.158;24.732;2023-07-08T05:25:59;11.77;;;10.15;;
8050;SDS011;4068;42.158;24.732;2023-07-08T05:28:26;13.23;;;9.82;;
8050;SDS011;4068;42.158;24.732;2023-07-08T05:30:54;15.02;;;10.30;;
8050;SDS011;4068;42.158;24.732;2023-07-08T05:33:20;12.00;;;10.20;;
8050;SDS011;4068;42.158;24.732;2023-07-08T05:35:49;12.30;;;10.35;;
8050;SDS011;4068;42.158;24.732;2023-07-08T05:38:15;12.10;;;10.30;;
8050;SDS011;4068;42.158;24.732;2023-07-08T05:40:40;15.07;;;10.18;;
8050;SDS011;4068;42.158;24.732;2023-07-08T05:43:06;11.95;;;10.15;;
8050;SDS011;4068;42.158;24.732;2023-07-08T05:45:32;10.63;;;9.52;;
8050;SDS011;4068;42.158;24.732;2023-07-08T05:47:57;16.42;;;9.98;;
8050;SDS011;4068;42.158;24.732;2023-07-08T05:50:23;13.10;;;10.77;;
8050;SDS011;4068;42.158;24.732;2023-07-08T05:52:48;13.68;;;9.48;;
8050;SDS011;4068;42.158;24.732;2023-07-08T05:55:14;12.15;;;9.82;;
8050;SDS011;4068;42.158;24.732;2023-07-08T05:57:39;12.40;;;9.60;;
8050;SDS011;4068;42.158;24.732;2023-07-08T06:00:05;10.55;;;9.13;;
8050;SDS011;4068;42.158;24.732;2023-07-08T06:02:31;12.65;;;9.70;;
8050;SDS011;4068;42.158;24.732;2023-07-08T06:04:57;11.55;;;9.18;;
8050;SDS011;4068;42.158;24.732;2023-07-08T06:07:22;11.43;;;8.02;;
8050;SDS011;4068;42.158;24.732;2023-07-08T06:09:48;10.90;;;9.48;;
8050;SDS011;4068;42.158;24.732;2023-07-08T06:12:13;11.40;;;9.20;;
8050;SDS011;4068;42.158;24.732;2023-07-08T06:14:39;14.50;;;9.10;;
8050;SDS011;4068;42.158;24.732;2023-07-08T06:17:04;11.48;;;9.48;;
8050;SDS011;4068;42.158;24.732;2023-07-08T06:19:30;13.18;;;9.07;;
8050;SDS011;4068;42.158;24.732;2023-07-08T06:21:55;10.95;;;9.30;;
8050;SDS011;4068;42.158;24.732;2023-07-08T06:24:21;12.82;;;9.13;;
8050;SDS011;4068;42.158;24.732;2023-07-08T06:26:46;10.05;;;8.68;;
8050;SDS011;4068;42.158;24.732;2023-07-08T06:29:12;9.45;;;8.40;;
8050;SDS011;4068;42.158;24.732;2023-07-08T06:31:37;10.20;;;8.02;;
8050;SDS011;4068;42.158;24.732;2023-07-08T06:34:03;11.88;;;8.18;;
8050;SDS011;4068;42.158;24.732;2023-07-08T06:36:29;7.78;;;6.93;;
8050;SDS011;4068;42.158;24.732;2023-07-08T06:38:55;8.35;;;6.70;;
8050;SDS011;4068;42.158;24.732;2023-07-08T06:41:20;8.10;;;6.53;;
8050;SDS011;4068;42.158;24.732;2023-07-08T06:43:46;9.15;;;6.18;;
8050;SDS011;4068;42.158;24.732;2023-07-08T06:46:12;7.20;;;6.15;;
8050;SDS011;4068;42.158;24.732;2023-07-08T06:48:37;7.70;;;6.88;;
8050;SDS011;4068;42.158;24.732;2023-07-08T06:51:03;10.02;;;6.25;;
8050;SDS011;4068;42.158;24.732;2023-07-08T06:53:28;6.22;;;5.28;;
8050;SDS011;4068;42.158;24.732;2023-07-08T06:55:54;6.43;;;5.15;;
8050;SDS011;4068;42.158;24.732;2023-07-08T06:58:19;8.57;;;5.80;;
8050;SDS011;4068;42.158;24.732;2023-07-08T07:00:45;10.48;;;6.22;;
8050;SDS011;4068;42.158;24.732;2023-07-08T07:03:11;5.03;;;4.50;;
8050;SDS011;4068;42.158;24.732;2023-07-08T07:05:37;7.80;;;5.55;;
8050;SDS011;4068;42.158;24.732;2023-07-08T07:08:03;5.65;;;4.72;;
8050;SDS011;4068;42.158;24.732;2023-07-08T07:10:29;9.60;;;6.28;;
8050;SDS011;4068;42.158;24.732;2023-07-08T07:12:55;7.53;;;5.40;;
8050;SDS011;4068;42.158;24.732;2023-07-08T07:15:20;6.60;;;5.32;;
8050;SDS011;4068;42.158;24.732;2023-07-08T07:17:46;7.70;;;5.45;;
8050;SDS011;4068;42.158;24.732;2023-07-08T07:20:11;5.65;;;5.03;;
8050;SDS011;4068;42.158;24.732;2023-07-08T07:22:37;6.57;;;5.22;;
8050;SDS011;4068;42.158;24.732;2023-07-08T07:25:03;8.07;;;5.40;;
8050;SDS011;4068;42.158;24.732;2023-07-08T07:27:29;8.30;;;5.45;;
8050;SDS011;4068;42.158;24.732;2023-07-08T07:29:54;6.25;;;5.60;;
8050;SDS011;4068;42.158;24.732;2023-07-08T07:35:04;8.25;;;5.82;;
8050;SDS011;4068;42.158;24.732;2023-07-08T07:37:30;7.13;;;5.85;;
8050;SDS011;4068;42.158;24.732;2023-07-08T07:39:56;6.00;;;5.22;;
8050;SDS011;4068;42.158;24.732;2023-07-08T07:42:21;9.60;;;6.15;;
8050;SDS011;4068;42.158;24.732;2023-07-08T07:44:47;6.40;;;5.75;;
8050;SDS011;4068;42.158;24.732;2023-07-08T07:47:12;5.63;;;5.00;;
8050;SDS011;4068;42.158;24.732;2023-07-08T07:49:38;6.30;;;5.15;;
8050;SDS011;4068;42.158;24.732;2023-07-08T07:52:04;7.05;;;5.25;;
8050;SDS011;4068;42.158;24.732;2023-07-08T07:54:30;5.85;;;5.25;;
8050;SDS011;4068;42.158;24.732;2023-07-08T07:56:56;8.80;;;5.93;;
8050;SDS011;4068;42.158;24.732;2023-07-08T07:59:21;7.57;;;5.30;;
8050;SDS011;4068;42.158;24.732;2023-07-08T08:01:47;8.25;;;5.03;;
8050;SDS011;4068;42.158;24.732;2023-07-08T08:04:12;5.20;;;4.70;;
8050;SDS011;4068;42.158;24.732;2023-07-08T08:06:38;6.95;;;4.43;;
8050;SDS011;4068;42.158;24.732;2023-07-08T08:09:04;7.63;;;4.97;;
8050;SDS011;4068;42.158;24.732;2023-07-08T08:11:30;7.18;;;4.85;;
8050;SDS011;4068;42.158;24.732;2023-07-08T08:13:56;5.85;;;4.65;;
8050;SDS011;4068;42.158;24.732;2023-07-08T08:16:22;5.05;;;4.55;;
8050;SDS011;4068;42.158;24.732;2023-07-08T08:18:47;5.10;;;4.60;;
8050;SDS011;4068;42.158;24.732;2023-07-08T08:21:13;4.80;;;4.35;;
8050;SDS011;4068;42.158;24.732;2023-07-08T08:23:39;5.95;;;4.57;;
8050;SDS011;4068;42.158;24.732;2023-07-08T08:26:04;5.55;;;4.95;;
8050;SDS011;4068;42.158;24.732;2023-07-08T08:28:30;5.43;;;4.35;;
8050;SDS011;4068;42.158;24.732;2023-07-08T08:30:55;8.90;;;4.40;;
8050;SDS011;4068;42.158;24.732;2023-07-08T08:33:21;9.02;;;4.47;;
8050;SDS011;4068;42.158;24.732;2023-07-08T08:35:47;5.78;;;4.82;;
8050;SDS011;4068;42.158;24.732;2023-07-08T08:38:12;5.72;;;4.00;;
8050;SDS011;4068;42.158;24.732;2023-07-08T08:40:41;14.18;;;4.18;;
8050;SDS011;4068;42.158;24.732;2023-07-08T08:43:21;4.40;;;3.78;;
8050;SDS011;4068;42.158;24.732;2023-07-08T08:48:59;8.68;;;3.83;;
8050;SDS011;4068;42.158;24.732;2023-07-08T08:51:32;5.53;;;3.67;;
8050;SDS011;4068;42.158;24.732;2023-07-08T08:53:58;6.57;;;4.07;;
8050;SDS011;4068;42.158;24.732;2023-07-08T08:56:27;8.05;;;4.68;;
8050;SDS011;4068;42.158;24.732;2023-07-08T09:01:41;4.70;;;3.40;;
8050;SDS011;4068;42.158;24.732;2023-07-08T09:04:11;4.47;;;4.00;;
8050;SDS011;4068;42.158;24.732;2023-07-08T09:06:41;5.65;;;3.85;;
8050;SDS011;4068;42.158;24.732;2023-07-08T09:09:15;3.75;;;3.35;;
8050;SDS011;4068;42.158;24.732;2023-07-08T09:11:58;5.60;;;3.70;;
8050;SDS011;4068;42.158;24.732;2023-07-08T09:14:30;5.03;;;3.72;;
8050;SDS011;4068;42.158;24.732;2023-07-08T09:27:34;6.50;;;4.30;;
8050;SDS011;4068;42.158;24.732;2023-07-08T09:29:59;4.57;;;3.47;;
8050;SDS011;4068;42.158;24.732;2023-07-08T09:32:26;4.38;;;3.33;;
8050;SDS011;4068;42.158;24.732;2023-07-08T09:35:01;4.10;;;3.70;;
8050;SDS011;4068;42.158;24.732;2023-07-08T09:37:29;4.28;;;3.78;;
8050;SDS011;4068;42.158;24.732;2023-07-08T09:39:58;5.47;;;3.60;;
8050;SDS011;4068;42.158;24.732;2023-07-08T09:42:27;5.38;;;3.88;;
8050;SDS011;4068;42.158;24.732;2023-07-08T09:45:01;4.72;;;3.45;;
8050;SDS011;4068;42.158;24.732;2023-07-08T09:47:37;4.60;;;3.70;;
8050;SDS011;4068;42.158;24.732;2023-07-08T09:50:18;4.88;;;3.65;;
8050;SDS011;4068;42.158;24.732;2023-07-08T09:52:47;7.72;;;3.50;;
8050;SDS011;4068;42.158;24.732;2023-07-08T09:55:14;7.32;;;3.88;;
8050;SDS011;4068;42.158;24.732;2023-07-08T09:57:40;4.85;;;3.67;;
8050;SDS011;4068;42.158;24.732;2023-07-08T10:00:07;6.85;;;4.63;;
8050;SDS011;4068;42.158;24.732;2023-07-08T10:02:54;4.25;;;3.60;;
8050;SDS011;4068;42.158;24.732;2023-07-08T10:05:38;5.18;;;3.60;;
8050;SDS011;4068;42.158;24.732;2023-07-08T10:08:13;5.07;;;4.05;;
8050;SDS011;4068;42.158;24.732;2023-07-08T10:10:41;5.05;;;3.35;;
8050;SDS011;4068;42.158;24.732;2023-07-08T10:16:12;6.22;;;4.88;;
8050;SDS011;4068;42.158;24.732;2023-07-08T10:18:47;4.15;;;3.58;;
8050;SDS011;4068;42.158;24.732;2023-07-08T10:28:45;4.07;;;3.75;;
8050;SDS011;4068;42.158;24.732;2023-07-08T10:31:27;4.22;;;3.70;;
8050;SDS011;4068;42.158;24.732;2023-07-08T10:41:50;4.78;;;3.20;;
8050;SDS011;4068;42.158;24.732;2023-07-08T10:55:01;4.18;;;3.28;;
8050;SDS011;4068;42.158;24.732;2023-07-08T11:06:15;3.60;;;3.20;;
8050;SDS011;4068;42.158;24.732;2023-07-08T11:08:48;3.50;;;3.17;;
8050;SDS011;4068;42.158;24.732;2023-07-08T11:14:08;4.03;;;3.35;;
8050;SDS011;4068;42.158;24.732;2023-07-08T11:16:47;3.22;;;2.92;;
8050;SDS011;4068;42.158;24.732;2023-07-08T11:19:21;5.15;;;3.05;;
8050;SDS011;4068;42.158;24.732;2023-07-08T11:21:57;5.85;;;3.40;;
8050;SDS011;4068;42.158;24.732;2023-07-08T11:24:28;3.75;;;3.45;;
8050;SDS011;4068;42.158;24.732;2023-07-08T11:27:06;3.70;;;3.30;;
8050;SDS011;4068;42.158;24.732;2023-07-08T11:30:04;4.25;;;3.83;;
8050;SDS011;4068;42.158;24.732;2023-07-08T11:32:37;7.32;;;3.40;;
8050;SDS011;4068;42.158;24.732;2023-07-08T11:35:05;4.78;;;3.50;;
8050;SDS011;4068;42.158;24.732;2023-07-08T11:37:38;3.33;;;3.03;;
8050;SDS011;4068;42.158;24.732;2023-07-08T11:45:08;5.07;;;3.05;;
8050;SDS011;4068;42.158;24.732;2023-07-08T11:47:47;3.30;;;3.00;;
8050;SDS011;4068;42.158;24.732;2023-07-08T11:53:07;4.55;;;3.55;;
8050;SDS011;4068;42.158;24.732;2023-07-08T11:55:38;6.68;;;3.65;;
8050;SDS011;4068;42.158;24.732;2023-07-08T11:58:08;4.63;;;3.40;;
8050;SDS011;4068;42.158;24.732;2023-07-08T12:00:44;4.72;;;3.30;;
8050;SDS011;4068;42.158;24.732;2023-07-08T12:03:20;5.38;;;3.30;;
8050;SDS011;4068;42.158;24.732;2023-07-08T12:05:46;5.60;;;3.30;;
8050;SDS011;4068;42.158;24.732;2023-07-08T12:08:15;3.13;;;2.92;;
8050;SDS011;4068;42.158;24.732;2023-07-08T12:13:18;4.43;;;3.50;;
8050;SDS011;4068;42.158;24.732;2023-07-08T12:15:46;4.43;;;3.33;;
8050;SDS011;4068;42.158;24.732;2023-07-08T12:18:17;3.90;;;2.67;;
8050;SDS011;4068;42.158;24.732;2023-07-08T12:20:48;3.55;;;2.80;;
8050;SDS011;4068;42.158;24.732;2023-07-08T12:23:20;3.65;;;3.35;;
8050;SDS011;4068;42.158;24.732;2023-07-08T12:25:48;4.38;;;3.40;;
8050;SDS011;4068;42.158;24.732;2023-07-08T12:28:14;5.97;;;3.15;;
8050;SDS011;4068;42.158;24.732;2023-07-08T12:30:41;3.55;;;3.25;;
8050;SDS011;4068;42.158;24.732;2023-07-08T12:33:12;3.42;;;3.13;;
8050;SDS011;4068;42.158;24.732;2023-07-08T12:35:44;5.95;;;3.22;;
8050;SDS011;4068;42.158;24.732;2023-07-08T12:38:17;7.00;;;3.20;;
8050;SDS011;4068;42.158;24.732;2023-07-08T12:40:49;4.10;;;2.53;;
8050;SDS011;4068;42.158;24.732;2023-07-08T12:43:15;3.97;;;2.72;;
8050;SDS011;4068;42.158;24.732;2023-07-08T12:45:41;3.47;;;2.75;;
8050;SDS011;4068;42.158;24.732;2023-07-08T12:48:08;3.08;;;2.80;;
8050;SDS011;4068;42.158;24.732;2023-07-08T12:50:34;6.82;;;2.90;;
8050;SDS011;4068;42.158;24.732;2023-07-08T12:52:59;3.63;;;3.22;;
8050;SDS011;4068;42.158;24.732;2023-07-08T12:55:29;3.40;;;3.10;;
8050;SDS011;4068;42.158;24.732;2023-07-08T12:57:55;4.22;;;2.97;;
8050;SDS011;4068;42.158;24.732;2023-07-08T13:00:29;3.33;;;3.03;;
8050;SDS011;4068;42.158;24.732;2023-07-08T13:03:19;5.03;;;3.05;;
8050;SDS011;4068;42.158;24.732;2023-07-08T13:05:47;6.03;;;3.00;;
8050;SDS011;4068;42.158;24.732;2023-07-08T13:08:15;4.15;;;2.47;;
8050;SDS011;4068;42.158;24.732;2023-07-08T13:10:43;2.78;;;2.53;;
8050;SDS011;4068;42.158;24.732;2023-07-08T13:13:12;3.63;;;2.20;;
8050;SDS011;4068;42.158;24.732;2023-07-08T13:15:43;3.55;;;2.53;;
8050;SDS011;4068;42.158;24.732;2023-07-08T13:18:14;17.35;;;3.75;;
8050;SDS011;4068;42.158;24.732;2023-07-08T13:20:40;8.20;;;2.83;;
8050;SDS011;4068;42.158;24.732;2023-07-08T13:23:07;8.57;;;3.35;;
8050;SDS011;4068;42.158;24.732;2023-07-08T13:25:33;9.25;;;3.20;;
8050;SDS011;4068;42.158;24.732;2023-07-08T13:28:24;5.60;;;2.50;;
8050;SDS011;4068;42.158;24.732;2023-07-08T13:31:02;4.30;;;2.42;;
8050;SDS011;4068;42.158;24.732;2023-07-08T13:33:38;3.88;;;1.98;;
8050;SDS011;4068;42.158;24.732;2023-07-08T13:36:11;2.22;;;2.03;;
8050;SDS011;4068;42.158;24.732;2023-07-08T13:38:38;4.63;;;2.25;;
8050;SDS011;4068;42.158;24.732;2023-07-08T13:41:06;2.40;;;2.20;;
8050;SDS011;4068;42.158;24.732;2023-07-08T13:43:33;7.07;;;2.08;;
8050;SDS011;4068;42.158;24.732;2023-07-08T13:46:01;2.88;;;2.30;;
8050;SDS011;4068;42.158;24.732;2023-07-08T13:48:28;4.88;;;2.20;;
8050;SDS011;4068;42.158;24.732;2023-07-08T13:53:33;1.92;;;1.83;;
8050;SDS011;4068;42.158;24.732;2023-07-08T13:56:07;5.65;;;1.58;;
8050;SDS011;4068;42.158;24.732;2023-07-08T13:58:41;2.15;;;1.95;;
8050;SDS011;4068;42.158;24.732;2023-07-08T14:01:18;5.28;;;1.80;;
8050;SDS011;4068;42.158;24.732;2023-07-08T14:03:48;4.43;;;1.80;;
8050;SDS011;4068;42.158;24.732;2023-07-08T14:06:15;3.95;;;1.77;;
8050;SDS011;4068;42.158;24.732;2023-07-08T14:08:41;1.73;;;1.60;;
8050;SDS011;4068;42.158;24.732;2023-07-08T14:11:07;2.13;;;1.80;;
8050;SDS011;4068;42.158;24.732;2023-07-08T14:13:33;2.00;;;1.80;;
8050;SDS011;4068;42.158;24.732;2023-07-08T14:15:58;3.03;;;1.77;;
8050;SDS011;4068;42.158;24.732;2023-07-08T14:18:24;2.92;;;1.80;;
8050;SDS011;4068;42.158;24.732;2023-07-08T14:20:49;3.95;;;2.42;;
8050;SDS011;4068;42.158;24.732;2023-07-08T14:23:16;3.13;;;2.00;;
8050;SDS011;4068;42.158;24.732;2023-07-08T14:25:42;2.97;;;2.30;;
8050;SDS011;4068;42.158;24.732;2023-07-08T14:28:08;6.50;;;2.40;;
8050;SDS011;4068;42.158;24.732;2023-07-08T14:30:34;3.13;;;2.67;;
8050;SDS011;4068;42.158;24.732;2023-07-08T14:33:10;3.22;;;2.30;;
8050;SDS011;4068;42.158;24.732;2023-07-08T14:35:36;6.32;;;2.55;;
8050;SDS011;4068;42.158;24.732;2023-07-08T14:38:02;9.23;;;2.80;;
8050;SDS011;4068;42.158;24.732;2023-07-08T14:40:37;4.07;;;2.70;;
8050;SDS011;4068;42.158;24.732;2023-07-08T14:43:04;3.95;;;2.35;;
8050;SDS011;4068;42.158;24.732;2023-07-08T14:45:45;3.70;;;2.78;;
8050;SDS011;4068;42.158;24.732;2023-07-08T14:48:19;4.70;;;2.88;;
8050;SDS011;4068;42.158;24.732;2023-07-08T14:50:45;5.78;;;3.60;;
8050;SDS011;4068;42.158;24.732;2023-07-08T14:53:12;6.78;;;3.03;;
8050;SDS011;4068;42.158;24.732;2023-07-08T14:55:39;3.03;;;2.72;;
8050;SDS011;4068;42.158;24.732;2023-07-08T14:58:04;5.05;;;3.00;;
8050;SDS011;4068;42.158;24.732;2023-07-08T15:00:30;4.97;;;3.88;;
8050;SDS011;4068;42.158;24.732;2023-07-08T15:02:56;5.72;;;2.70;;
8050;SDS011;4068;42.158;24.732;2023-07-08T15:05:23;2.80;;;2.60;;
8050;SDS011;4068;42.158;24.732;2023-07-08T15:07:51;7.57;;;4.40;;
8050;SDS011;4068;42.158;24.732;2023-07-08T15:10:23;3.13;;;2.83;;
8050;SDS011;4068;42.158;24.732;2023-07-08T15:12:50;4.95;;;3.30;;
8050;SDS011;4068;42.158;24.732;2023-07-08T15:15:29;3.42;;;2.58;;
8050;SDS011;4068;42.158;24.732;2023-07-08T15:17:56;2.38;;;2.17;;
8050;SDS011;4068;42.158;24.732;2023-07-08T15:20:23;2.40;;;2.20;;
8050;SDS011;4068;42.158;24.732;2023-07-08T15:22:49;3.17;;;2.88;;
8050;SDS011;4068;42.158;24.732;2023-07-08T15:25:15;5.50;;;2.88;;
8050;SDS011;4068;42.158;24.732;2023-07-08T15:27:41;2.75;;;2.55;;
8050;SDS011;4068;42.158;24.732;2023-07-08T15:30:20;2.60;;;2.40;;
8050;SDS011;4068;42.158;24.732;2023-07-08T15:32:50;4.63;;;2.50;;
8050;SDS011;4068;42.158;24.732;2023-07-08T15:35:17;3.92;;;2.28;;
8050;SDS011;4068;42.158;24.732;2023-07-08T15:37:45;3.25;;;2.40;;
8050;SDS011;4068;42.158;24.732;2023-07-08T15:40:14;2.80;;;2.60;;
8050;SDS011;4068;42.158;24.732;2023-07-08T15:42:41;3.30;;;2.60;;
8050;SDS011;4068;42.158;24.732;2023-07-08T15:47:39;5.57;;;2.50;;
8050;SDS011;4068;42.158;24.732;2023-07-08T15:50:24;5.32;;;2.97;;
8050;SDS011;4068;42.158;24.732;2023-07-08T15:52:50;2.88;;;2.47;;
8050;SDS011;4068;42.158;24.732;2023-07-08T15:55:34;3.85;;;2.67;;
8050;SDS011;4068;42.158;24.732;2023-07-08T15:58:44;3.17;;;2.50;;
8050;SDS011;4068;42.158;24.732;2023-07-08T16:00:50;2.88;;;2.60;;
8050;SDS011;4068;42.158;24.732;2023-07-08T16:03:20;2.40;;;2.20;;
8050;SDS011;4068;42.158;24.732;2023-07-08T16:05:48;2.90;;;2.50;;
8050;SDS011;4068;42.158;24.732;2023-07-08T16:08:14;6.43;;;1.90;;
8050;SDS011;4068;42.158;24.732;2023-07-08T16:10:40;2.80;;;2.53;;
8050;SDS011;4068;42.158;24.732;2023-07-08T16:13:05;2.60;;;2.40;;
8050;SDS011;4068;42.158;24.732;2023-07-08T16:15:36;2.53;;;2.22;;
8050;SDS011;4068;42.158;24.732;2023-07-08T16:18:08;3.55;;;2.42;;
8050;SDS011;4068;42.158;24.732;2023-07-08T16:20:37;5.15;;;2.60;;
8050;SDS011;4068;42.158;24.732;2023-07-08T16:23:02;3.45;;;2.58;;
8050;SDS011;4068;42.158;24.732;2023-07-08T16:25:29;3.28;;;2.88;;
8050;SDS011;4068;42.158;24.732;2023-07-08T16:28:00;2.83;;;2.42;;
8050;SDS011;4068;42.158;24.732;2023-07-08T16:30:26;2.55;;;2.35;;
8050;SDS011;4068;42.158;24.732;2023-07-08T16:32:53;3.00;;;2.58;;